Time;durP1;ratioP1;P1;durP2;ratioP2;P2;SDS_P1;SDS_P2;PMS_P1;PMS_P2;Temp;Humidity;BMP_temperature;BMP_pressure;BME280_temperature;BME280_humidity;BME280_pressure;Samples;Min_cycle;Max_cycle;Signal;HPM_P1;HPM_P2
2023/12/26 00:01:19;;;;;;;0.90;0.90;;;;;;;;;;4976764;28;20065;-81
2023/12/26 00:03:44;;;;;;;1.40;0.80;;;;;;;;;;4997759;28;20069;-79
2023/12/26 00:06:10;;;;;;;0.98;0.93;;;;;;;;;;4991660;28;20031;-80
2023/12/26 00:08:35;;;;;;;2.17;0.93;;;;;;;;;;4992535;28;20087;-80
2023/12/26 00:11:01;;;;;;;0.95;0.90;;;;;;;;;;4998345;28;20042;-80
2023/12/26 00:13:26;;;;;;;0.75;0.75;;;;;;;;;;4989947;28;20043;-80
2023/12/26 00:15:51;;;;;;;0.80;0.80;;;;;;;;;;4972796;28;20034;-80
2023/12/26 00:18:17;;;;;;;0.90;0.90;;;;;;;;;;4977233;28;20038;-81
2023/12/26 00:20:43;;;;;;;1.15;1.00;;;;;;;;;;4998463;28;20081;-80
2023/12/26 00:23:08;;;;;;;1.55;0.90;;;;;;;;;;4964339;28;20176;-81
2023/12/26 00:25:34;;;;;;;0.75;0.75;;;;;;;;;;4983433;28;20519;-80
2023/12/26 00:27:59;;;;;;;0.95;0.70;;;;;;;;;;4977281;28;20039;-79
2023/12/26 00:30:24;;;;;;;1.40;0.90;;;;;;;;;;4997623;28;20035;-80
2023/12/26 00:32:49;;;;;;;0.90;0.90;;;;;;;;;;4980691;28;20040;-80
2023/12/26 00:35:15;;;;;;;3.05;0.88;;;;;;;;;;4996686;28;20031;-80
2023/12/26 00:37:40;;;;;;;0.70;0.70;;;;;;;;;;4996736;28;20194;-81
2023/12/26 00:40:06;;;;;;;0.70;0.70;;;;;;;;;;4972129;28;20074;-81
2023/12/26 00:42:31;;;;;;;0.70;0.60;;;;;;;;;;4959670;28;20042;-78
2023/12/26 00:44:58;;;;;;;2.05;0.70;;;;;;;;;;4998854;28;20034;-80
2023/12/26 00:47:23;;;;;;;0.95;0.80;;;;;;;;;;4997706;28;20027;-80
2023/12/26 00:49:49;;;;;;;0.77;0.77;;;;;;;;;;4994563;28;20046;-80
2023/12/26 00:52:14;;;;;;;0.95;0.77;;;;;;;;;;4997302;28;20042;-81
2023/12/26 00:54:39;;;;;;;2.45;0.80;;;;;;;;;;4985655;28;20059;-81
2023/12/26 00:57:04;;;;;;;1.08;0.70;;;;;;;;;;4979131;28;20030;-82
2023/12/26 00:59:30;;;;;;;0.90;0.90;;;;;;;;;;4985640;28;20086;-81
2023/12/26 01:02:00;;;;;;;0.73;0.73;;;;;;;;;;4992045;28;20507;-81
2023/12/26 01:04:26;;;;;;;1.05;0.70;;;;;;;;;;4980369;28;20038;-81
2023/12/26 01:06:51;;;;;;;1.10;0.80;;;;;;;;;;4967390;28;20121;-82
2023/12/26 01:09:16;;;;;;;0.70;0.70;;;;;;;;;;4990770;28;20483;-80
2023/12/26 01:11:41;;;;;;;0.70;0.70;;;;;;;;;;4993418;28;20034;-80
2023/12/26 01:14:07;;;;;;;0.93;0.90;;;;;;;;;;4972851;28;20061;-80
2023/12/26 01:16:32;;;;;;;0.70;0.70;;;;;;;;;;4974760;28;20035;-81
2023/12/26 01:18:57;;;;;;;0.60;0.60;;;;;;;;;;4984921;28;20516;-81
2023/12/26 01:21:23;;;;;;;0.80;0.80;;;;;;;;;;4964333;28;20097;-80
2023/12/26 01:23:48;;;;;;;1.58;0.77;;;;;;;;;;4985756;28;20502;-81
2023/12/26 01:26:13;;;;;;;1.23;0.85;;;;;;;;;;4973747;28;20046;-80
2023/12/26 01:28:39;;;;;;;0.90;0.90;;;;;;;;;;4994169;28;20030;-79
2023/12/26 01:31:04;;;;;;;0.93;0.70;;;;;;;;;;4995627;28;20050;-81
2023/12/26 01:33:29;;;;;;;0.80;0.80;;;;;;;;;;4978599;28;20490;-81
2023/12/26 01:35:54;;;;;;;0.70;0.70;;;;;;;;;;4995392;28;20325;-80
2023/12/26 01:38:20;;;;;;;0.70;0.70;;;;;;;;;;4996057;28;20050;-79
2023/12/26 01:40:45;;;;;;;1.20;0.70;;;;;;;;;;4986744;28;20053;-81
2023/12/26 01:43:10;;;;;;;0.88;0.88;;;;;;;;;;4991746;28;20037;-81
2023/12/26 01:45:36;;;;;;;0.60;0.60;;;;;;;;;;4995597;28;20062;-80
2023/12/26 01:48:04;;;;;;;0.75;0.75;;;;;;;;;;4991773;28;20481;-78
2023/12/26 01:50:29;;;;;;;1.80;0.77;;;;;;;;;;4983101;28;20059;-81
2023/12/26 01:52:55;;;;;;;1.55;1.10;;;;;;;;;;4990042;28;20046;-80
2023/12/26 01:55:21;;;;;;;0.60;0.60;;;;;;;;;;4971756;28;20039;-80
2023/12/26 01:57:47;;;;;;;1.58;0.95;;;;;;;;;;4989706;28;20058;-81
2023/12/26 02:00:12;;;;;;;0.70;0.70;;;;;;;;;;4993974;28;20038;-81
2023/12/26 02:02:39;;;;;;;0.57;0.57;;;;;;;;;;4994528;28;20491;-79
2023/12/26 02:05:05;;;;;;;0.90;0.90;;;;;;;;;;4994550;28;20049;-81
2023/12/26 02:07:30;;;;;;;0.82;0.82;;;;;;;;;;4995373;28;20060;-81
2023/12/26 02:09:55;;;;;;;0.68;0.68;;;;;;;;;;4987794;28;20054;-80
2023/12/26 02:12:21;;;;;;;1.33;0.80;;;;;;;;;;4974318;28;20484;-80
2023/12/26 02:14:47;;;;;;;0.80;0.80;;;;;;;;;;4987877;28;20028;-80
2023/12/26 02:17:18;;;;;;;3.83;0.73;;;;;;;;;;4978638;28;20041;-80
2023/12/26 02:19:45;;;;;;;0.70;0.70;;;;;;;;;;4995549;28;20061;-79
2023/12/26 02:22:11;;;;;;;0.85;0.75;;;;;;;;;;4993855;28;20034;-80
2023/12/26 02:24:36;;;;;;;0.70;0.70;;;;;;;;;;4973970;28;20042;-80
2023/12/26 02:27:02;;;;;;;4.43;0.95;;;;;;;;;;4992967;28;20074;-80
2023/12/26 02:29:28;;;;;;;0.82;0.82;;;;;;;;;;4991322;28;20276;-80
2023/12/26 02:31:55;;;;;;;0.68;0.60;;;;;;;;;;4974403;28;20044;-80
2023/12/26 02:34:21;;;;;;;0.65;0.65;;;;;;;;;;4974811;28;20039;-79
2023/12/26 02:36:47;;;;;;;0.60;0.60;;;;;;;;;;4974133;28;20057;-80
2023/12/26 02:39:14;;;;;;;4.03;1.30;;;;;;;;;;4976820;28;20031;-80
2023/12/26 02:41:39;;;;;;;0.80;0.80;;;;;;;;;;4988336;28;20072;-79
2023/12/26 02:44:05;;;;;;;0.80;0.80;;;;;;;;;;4996054;28;20042;-80
2023/12/26 02:46:30;;;;;;;0.80;0.70;;;;;;;;;;4989111;28;20046;-80
2023/12/26 02:48:55;;;;;;;0.80;0.80;;;;;;;;;;4989048;28;20426;-80
2023/12/26 02:51:20;;;;;;;0.73;0.70;;;;;;;;;;4974862;28;20379;-81
2023/12/26 02:53:46;;;;;;;0.60;0.52;;;;;;;;;;4996893;28;20026;-79
2023/12/26 02:56:11;;;;;;;1.15;0.93;;;;;;;;;;4996596;28;20049;-78
2023/12/26 02:58:36;;;;;;;1.58;0.80;;;;;;;;;;4984172;28;20511;-81
2023/12/26 03:01:01;;;;;;;0.70;0.70;;;;;;;;;;4991726;28;20042;-80
2023/12/26 03:03:27;;;;;;;0.80;0.80;;;;;;;;;;4993054;28;20041;-80
2023/12/26 03:05:52;;;;;;;0.75;0.75;;;;;;;;;;4962897;28;20067;-80
2023/12/26 03:08:17;;;;;;;0.63;0.63;;;;;;;;;;4983933;28;20047;-79
2023/12/26 03:10:43;;;;;;;0.70;0.70;;;;;;;;;;4986492;28;20034;-80
2023/12/26 03:13:08;;;;;;;0.50;0.50;;;;;;;;;;4993426;28;20066;-80
2023/12/26 03:15:33;;;;;;;0.82;0.73;;;;;;;;;;4994039;28;20040;-80
2023/12/26 03:17:58;;;;;;;0.68;0.68;;;;;;;;;;4992010;28;20442;-79
2023/12/26 03:20:24;;;;;;;0.63;0.63;;;;;;;;;;4957876;28;20041;-81
2023/12/26 03:22:49;;;;;;;0.70;0.70;;;;;;;;;;4977041;28;20038;-80
2023/12/26 03:25:14;;;;;;;0.90;0.70;;;;;;;;;;4974026;28;20042;-79
2023/12/26 03:27:40;;;;;;;0.90;0.80;;;;;;;;;;4994285;28;20573;-80
2023/12/26 03:30:07;;;;;;;0.68;0.68;;;;;;;;;;4983161;28;20030;-80
2023/12/26 03:32:32;;;;;;;1.58;1.00;;;;;;;;;;4992595;28;20070;-81
2023/12/26 03:34:58;;;;;;;0.65;0.65;;;;;;;;;;4986390;28;20046;-81
2023/12/26 03:37:23;;;;;;;1.95;0.80;;;;;;;;;;4977146;28;20038;-81
2023/12/26 03:39:48;;;;;;;1.45;0.90;;;;;;;;;;4992641;28;20038;-81
2023/12/26 03:42:13;;;;;;;1.42;0.80;;;;;;;;;;4991458;28;20034;-79
2023/12/26 03:44:39;;;;;;;0.63;0.63;;;;;;;;;;4951162;28;20039;-80
2023/12/26 03:47:04;;;;;;;1.55;0.60;;;;;;;;;;4992120;28;20110;-81
2023/12/26 03:49:32;;;;;;;0.95;0.60;;;;;;;;;;4972045;28;20426;-81
2023/12/26 03:51:57;;;;;;;1.83;0.70;;;;;;;;;;4988108;28;20109;-80
2023/12/26 03:54:22;;;;;;;0.60;0.60;;;;;;;;;;4985510;28;20492;-79
2023/12/26 03:56:47;;;;;;;0.98;0.50;;;;;;;;;;4986132;28;20077;-79
2023/12/26 03:59:13;;;;;;;0.68;0.68;;;;;;;;;;4990503;28;20663;-79
2023/12/26 04:01:38;;;;;;;0.98;0.60;;;;;;;;;;4973488;28;20049;-80
2023/12/26 04:04:04;;;;;;;1.23;0.75;;;;;;;;;;4995475;28;20046;-80
2023/12/26 04:06:29;;;;;;;0.82;0.70;;;;;;;;;;4985761;28;20043;-80
2023/12/26 04:08:55;;;;;;;0.85;0.73;;;;;;;;;;4987332;28;20035;-80
2023/12/26 04:11:20;;;;;;;1.30;0.80;;;;;;;;;;4989990;28;20113;-80
2023/12/26 04:13:45;;;;;;;0.60;0.60;;;;;;;;;;4966471;28;20069;-79
2023/12/26 04:16:11;;;;;;;0.70;0.68;;;;;;;;;;5000481;28;20057;-79
2023/12/26 04:18:36;;;;;;;0.63;0.63;;;;;;;;;;4995405;28;20169;-81
2023/12/26 04:21:01;;;;;;;0.60;0.60;;;;;;;;;;4983619;28;20039;-81
2023/12/26 04:23:27;;;;;;;0.50;0.50;;;;;;;;;;4986317;28;20027;-78
2023/12/26 04:25:52;;;;;;;0.70;0.70;;;;;;;;;;4981838;28;20037;-80
2023/12/26 04:28:18;;;;;;;0.40;0.40;;;;;;;;;;4998482;28;20064;-80
2023/12/26 04:30:43;;;;;;;0.50;0.50;;;;;;;;;;4986223;28;20038;-79
2023/12/26 04:33:10;;;;;;;2.17;0.65;;;;;;;;;;4987482;28;20031;-80
2023/12/26 04:35:36;;;;;;;0.57;0.57;;;;;;;;;;4981351;28;20030;-80
2023/12/26 04:38:02;;;;;;;0.50;0.50;;;;;;;;;;4959878;28;20503;-77
2023/12/26 04:40:28;;;;;;;0.60;0.60;;;;;;;;;;4954273;28;20088;-79
2023/12/26 04:42:53;;;;;;;0.70;0.70;;;;;;;;;;4981342;28;20199;-81
2023/12/26 04:45:18;;;;;;;1.17;0.73;;;;;;;;;;4959451;28;20526;-80
2023/12/26 04:47:44;;;;;;;1.17;0.70;;;;;;;;;;4975402;28;20049;-78
2023/12/26 04:50:09;;;;;;;1.55;0.70;;;;;;;;;;4975891;28;20053;-80
2023/12/26 04:52:35;;;;;;;0.85;0.85;;;;;;;;;;4985117;28;20517;-80
2023/12/26 04:55:00;;;;;;;0.70;0.70;;;;;;;;;;4979827;28;20031;-80
2023/12/26 04:57:26;;;;;;;0.65;0.65;;;;;;;;;;4978418;28;20042;-79
2023/12/26 04:59:51;;;;;;;0.60;0.60;;;;;;;;;;4976823;28;20038;-79
2023/12/26 05:02:17;;;;;;;0.60;0.60;;;;;;;;;;4980144;28;20050;-78
2023/12/26 05:04:42;;;;;;;0.70;0.70;;;;;;;;;;4965100;28;20038;-80
2023/12/26 05:07:08;;;;;;;1.63;0.68;;;;;;;;;;4980969;28;20125;-79
2023/12/26 05:09:33;;;;;;;0.77;0.77;;;;;;;;;;4959967;28;20101;-79
2023/12/26 05:11:59;;;;;;;1.65;0.85;;;;;;;;;;4976552;28;20027;-78
2023/12/26 05:14:24;;;;;;;0.73;0.73;;;;;;;;;;4984814;28;20050;-80
2023/12/26 05:16:50;;;;;;;0.80;0.80;;;;;;;;;;4984126;28;20122;-80
2023/12/26 05:19:16;;;;;;;0.80;0.80;;;;;;;;;;4958408;28;20070;-80
2023/12/26 05:21:41;;;;;;;1.65;0.90;;;;;;;;;;4986958;28;20041;-80
2023/12/26 05:24:07;;;;;;;0.85;0.85;;;;;;;;;;4979115;28;20027;-80
2023/12/26 05:26:42;;;;;;;0.73;0.73;;;;;;;;;;4989195;28;20038;-79
2023/12/26 05:29:08;;;;;;;0.88;0.82;;;;;;;;;;4982753;28;20039;-80
2023/12/26 05:31:34;;;;;;;0.60;0.60;;;;;;;;;;4977795;28;20082;-81
2023/12/26 05:34:01;;;;;;;1.08;0.82;;;;;;;;;;4977316;28;20034;-81
2023/12/26 05:36:27;;;;;;;0.80;0.80;;;;;;;;;;4948326;28;20031;-81
2023/12/26 05:38:52;;;;;;;0.90;0.90;;;;;;;;;;4977882;28;20033;-79
2023/12/26 05:41:17;;;;;;;0.88;0.82;;;;;;;;;;4990367;28;20042;-80
2023/12/26 05:43:42;;;;;;;0.90;0.90;;;;;;;;;;4977548;28;20106;-81
2023/12/26 05:46:08;;;;;;;0.82;0.82;;;;;;;;;;4977192;28;20510;-81
2023/12/26 05:48:33;;;;;;;0.70;0.70;;;;;;;;;;4960717;28;20062;-81
2023/12/26 05:50:59;;;;;;;1.15;0.85;;;;;;;;;;4991003;28;20034;-80
2023/12/26 05:53:26;;;;;;;0.80;0.80;;;;;;;;;;4986782;28;20130;-80
2023/12/26 05:55:51;;;;;;;1.15;0.70;;;;;;;;;;4940233;29;20046;-82
2023/12/26 05:58:17;;;;;;;2.63;0.85;;;;;;;;;;4965505;28;20039;-79
2023/12/26 06:00:42;;;;;;;0.90;0.90;;;;;;;;;;4943237;28;20046;-81
2023/12/26 06:03:07;;;;;;;1.00;0.90;;;;;;;;;;4959011;28;20027;-81
2023/12/26 06:05:33;;;;;;;1.17;1.10;;;;;;;;;;4975955;28;20566;-80
2023/12/26 06:07:58;;;;;;;2.40;1.10;;;;;;;;;;4980251;28;20023;-80
2023/12/26 06:10:23;;;;;;;1.10;1.10;;;;;;;;;;4967230;28;20086;-80
2023/12/26 06:12:49;;;;;;;2.20;1.05;;;;;;;;;;4977129;28;20031;-81
2023/12/26 06:15:14;;;;;;;1.48;1.00;;;;;;;;;;4984416;28;20022;-80
2023/12/26 06:17:39;;;;;;;1.15;1.02;;;;;;;;;;4960881;28;20121;-79
2023/12/26 06:20:06;;;;;;;0.73;0.73;;;;;;;;;;4976251;28;20063;-79
2023/12/26 06:22:32;;;;;;;1.23;1.00;;;;;;;;;;4976098;28;20067;-81
2023/12/26 06:24:57;;;;;;;1.00;1.00;;;;;;;;;;4976581;28;20396;-81
2023/12/26 06:27:22;;;;;;;2.47;1.05;;;;;;;;;;4966324;28;20503;-80
2023/12/26 06:29:47;;;;;;;1.10;1.08;;;;;;;;;;4974396;28;20074;-80
2023/12/26 06:32:13;;;;;;;2.05;1.10;;;;;;;;;;4976542;28;20545;-80
2023/12/26 06:34:38;;;;;;;1.55;1.10;;;;;;;;;;4965587;28;20036;-79
2023/12/26 06:37:04;;;;;;;1.17;0.98;;;;;;;;;;4978462;28;20031;-82
2023/12/26 06:39:31;;;;;;;0.98;0.98;;;;;;;;;;4968279;28;20034;-80
2023/12/26 06:41:56;;;;;;;1.20;1.10;;;;;;;;;;4976800;28;20034;-80
2023/12/26 06:44:21;;;;;;;1.42;1.20;;;;;;;;;;4978139;28;20042;-80
2023/12/26 06:46:47;;;;;;;1.20;1.10;;;;;;;;;;4984297;28;20518;-79
2023/12/26 06:49:16;;;;;;;1.05;0.98;;;;;;;;;;4961250;28;20033;-82
2023/12/26 06:51:42;;;;;;;1.23;1.15;;;;;;;;;;4978277;28;20043;-81
2023/12/26 06:54:07;;;;;;;3.25;1.10;;;;;;;;;;4984425;28;20126;-81
2023/12/26 06:56:33;;;;;;;1.20;1.10;;;;;;;;;;4976016;28;20038;-81
2023/12/26 06:58:58;;;;;;;2.33;1.45;;;;;;;;;;4980567;28;20438;-79
2023/12/26 07:01:24;;;;;;;0.98;0.85;;;;;;;;;;4978426;28;20043;-79
2023/12/26 07:03:50;;;;;;;1.08;0.88;;;;;;;;;;4975409;28;20074;-79
2023/12/26 07:06:15;;;;;;;1.27;1.13;;;;;;;;;;4983771;28;20454;-80
2023/12/26 07:08:41;;;;;;;3.72;1.60;;;;;;;;;;4984194;28;20118;-79
2023/12/26 07:11:06;;;;;;;4.38;1.52;;;;;;;;;;4976232;28;20046;-81
2023/12/26 07:13:31;;;;;;;1.92;1.35;;;;;;;;;;4973851;28;20039;-81
2023/12/26 07:15:57;;;;;;;1.48;1.38;;;;;;;;;;4983073;28;20026;-81
2023/12/26 07:18:22;;;;;;;2.58;1.20;;;;;;;;;;4970122;28;20067;-80
2023/12/26 07:20:47;;;;;;;1.45;1.10;;;;;;;;;;4969112;28;20043;-79
2023/12/26 07:23:13;;;;;;;1.20;1.08;;;;;;;;;;4975928;28;20106;-81
2023/12/26 07:25:38;;;;;;;1.35;1.20;;;;;;;;;;4974403;28;20038;-80
2023/12/26 07:28:04;;;;;;;1.83;1.05;;;;;;;;;;4970023;28;20035;-78
2023/12/26 07:30:29;;;;;;;0.60;0.60;;;;;;;;;;4973306;28;20026;-81
2023/12/26 07:32:54;;;;;;;1.98;1.30;;;;;;;;;;4974069;28;20047;-77
2023/12/26 07:35:20;;;;;;;4.13;1.23;;;;;;;;;;4980447;28;20042;-78
2023/12/26 07:37:45;;;;;;;1.90;0.90;;;;;;;;;;4986297;28;20050;-81
2023/12/26 07:40:11;;;;;;;2.30;1.30;;;;;;;;;;4972080;28;20034;-81
2023/12/26 07:42:36;;;;;;;1.63;1.20;;;;;;;;;;4988005;28;20088;-80
2023/12/26 07:45:01;;;;;;;1.17;1.10;;;;;;;;;;4966547;28;20034;-80
2023/12/26 07:47:27;;;;;;;2.63;1.48;;;;;;;;;;4989593;28;20518;-80
2023/12/26 07:49:53;;;;;;;2.47;1.10;;;;;;;;;;4978144;28;20045;-79
2023/12/26 07:52:18;;;;;;;1.33;1.23;;;;;;;;;;4980283;28;20470;-78
2023/12/26 07:54:43;;;;;;;1.60;1.50;;;;;;;;;;4961564;28;20042;-79
2023/12/26 07:57:08;;;;;;;1.92;1.40;;;;;;;;;;4979956;28;20540;-79
2023/12/26 07:59:34;;;;;;;4.43;2.83;;;;;;;;;;4980504;28;20046;-79
2023/12/26 08:01:59;;;;;;;5.50;2.45;;;;;;;;;;4979530;28;20039;-79
2023/12/26 08:04:24;;;;;;;6.70;2.65;;;;;;;;;;4968610;28;20126;-79
2023/12/26 08:06:50;;;;;;;4.25;2.45;;;;;;;;;;4994271;28;20034;-79
2023/12/26 08:09:15;;;;;;;3.88;1.38;;;;;;;;;;4986157;28;20130;-79
2023/12/26 08:11:41;;;;;;;1.20;1.20;;;;;;;;;;4959051;28;20574;-78
2023/12/26 08:14:06;;;;;;;1.65;1.25;;;;;;;;;;4960814;28;20091;-78
2023/12/26 08:16:31;;;;;;;1.20;1.10;;;;;;;;;;4981671;28;20094;-81
2023/12/26 08:18:58;;;;;;;2.78;1.25;;;;;;;;;;4990225;28;20042;-80
2023/12/26 08:21:24;;;;;;;1.70;1.20;;;;;;;;;;4989906;28;20069;-80
2023/12/26 08:23:49;;;;;;;1.23;1.10;;;;;;;;;;4961285;28;20122;-80
2023/12/26 08:26:14;;;;;;;1.02;0.98;;;;;;;;;;4978687;28;20035;-79
2023/12/26 08:28:41;;;;;;;1.67;1.10;;;;;;;;;;4979060;28;20046;-79
2023/12/26 08:31:06;;;;;;;1.20;1.10;;;;;;;;;;4979765;28;20117;-79
2023/12/26 08:33:32;;;;;;;1.38;1.00;;;;;;;;;;4976193;28;20065;-80
2023/12/26 08:35:57;;;;;;;1.67;1.33;;;;;;;;;;4980799;28;20046;-79
2023/12/26 08:38:23;;;;;;;1.92;1.00;;;;;;;;;;4960898;28;20196;-81
2023/12/26 08:40:49;;;;;;;1.02;0.93;;;;;;;;;;4983113;28;20429;-81
2023/12/26 08:43:14;;;;;;;1.98;0.98;;;;;;;;;;4961624;28;20035;-79
2023/12/26 08:45:40;;;;;;;1.73;1.23;;;;;;;;;;4985733;28;20043;-80
2023/12/26 08:48:05;;;;;;;2.28;1.52;;;;;;;;;;4975954;28;20035;-81
2023/12/26 08:50:30;;;;;;;1.75;1.15;;;;;;;;;;4987802;28;20435;-79
2023/12/26 08:52:56;;;;;;;2.45;1.10;;;;;;;;;;4975972;28;20121;-80
2023/12/26 08:55:21;;;;;;;1.67;1.10;;;;;;;;;;4971817;28;20046;-80
2023/12/26 08:57:46;;;;;;;2.35;1.30;;;;;;;;;;4978249;28;20163;-82
2023/12/26 09:00:13;;;;;;;1.90;1.17;;;;;;;;;;4977592;28;20117;-82
2023/12/26 09:02:40;;;;;;;0.90;0.90;;;;;;;;;;4972738;28;20461;-81
2023/12/26 09:05:07;;;;;;;1.02;1.02;;;;;;;;;;4969270;28;20519;-81
2023/12/26 09:07:32;;;;;;;2.75;1.30;;;;;;;;;;4977655;28;20045;-81
2023/12/26 09:09:57;;;;;;;1.20;1.10;;;;;;;;;;4974113;28;20427;-79
2023/12/26 09:12:23;;;;;;;2.17;1.17;;;;;;;;;;4983607;28;20034;-81
2023/12/26 09:14:48;;;;;;;1.90;1.20;;;;;;;;;;4980678;28;20030;-81
2023/12/26 09:17:13;;;;;;;1.42;1.20;;;;;;;;;;4973612;28;20034;-81
2023/12/26 09:19:40;;;;;;;0.77;0.77;;;;;;;;;;4969728;28;20047;-81
2023/12/26 09:22:05;;;;;;;3.75;1.38;;;;;;;;;;4978066;28;20070;-81
2023/12/26 09:24:30;;;;;;;1.58;1.25;;;;;;;;;;4981338;28;20077;-80
2023/12/26 09:26:55;;;;;;;2.25;1.27;;;;;;;;;;4976977;28;20391;-81
2023/12/26 09:29:21;;;;;;;1.52;1.10;;;;;;;;;;4976000;28;20061;-81
2023/12/26 09:31:46;;;;;;;1.40;1.20;;;;;;;;;;4939590;28;20566;-80
2023/12/26 09:34:12;;;;;;;1.15;1.10;;;;;;;;;;4962812;28;20027;-80
2023/12/26 09:36:37;;;;;;;1.92;1.25;;;;;;;;;;4969323;28;20050;-80
2023/12/26 09:39:02;;;;;;;1.15;1.08;;;;;;;;;;4985570;28;20053;-80
2023/12/26 09:41:28;;;;;;;1.30;1.20;;;;;;;;;;4988976;28;20053;-79
2023/12/26 09:43:53;;;;;;;1.02;0.95;;;;;;;;;;4967791;28;20061;-79
2023/12/26 09:46:19;;;;;;;2.85;1.40;;;;;;;;;;4976832;28;20110;-79
2023/12/26 09:48:45;;;;;;;1.20;1.10;;;;;;;;;;4976372;28;20597;-81
2023/12/26 09:51:17;;;;;;;1.65;1.30;;;;;;;;;;4983017;28;20027;-80
2023/12/26 09:53:44;;;;;;;1.42;1.20;;;;;;;;;;4970756;28;20039;-81
2023/12/26 09:56:10;;;;;;;1.75;1.10;;;;;;;;;;4950150;28;20058;-81
2023/12/26 09:58:38;;;;;;;1.73;1.20;;;;;;;;;;4977027;28;20035;-81
2023/12/26 10:01:04;;;;;;;2.60;1.20;;;;;;;;;;4965407;28;20062;-80
2023/12/26 10:03:31;;;;;;;0.90;0.90;;;;;;;;;;4976779;28;20034;-80
2023/12/26 10:05:57;;;;;;;1.10;1.10;;;;;;;;;;4966700;28;20034;-79
2023/12/26 10:08:23;;;;;;;4.60;1.05;;;;;;;;;;4970870;28;20039;-78
2023/12/26 10:10:49;;;;;;;1.50;1.10;;;;;;;;;;4987695;23;20049;-75
2023/12/26 10:13:14;;;;;;;1.30;1.20;;;;;;;;;;4981827;28;20446;-75
2023/12/26 10:15:42;;;;;;;1.00;1.00;;;;;;;;;;4975852;28;20578;-75
2023/12/26 10:18:08;;;;;;;1.48;1.20;;;;;;;;;;4984473;28;20045;-75
2023/12/26 10:20:34;;;;;;;1.05;1.00;;;;;;;;;;4971915;28;20039;-77
2023/12/26 10:23:02;;;;;;;3.13;1.90;;;;;;;;;;4960184;28;20094;-75
2023/12/26 10:25:28;;;;;;;7.57;1.20;;;;;;;;;;4967208;28;20513;-73
2023/12/26 10:27:57;;;;;;;1.95;1.17;;;;;;;;;;4967425;28;20039;-73
2023/12/26 10:30:26;;;;;;;1.45;1.15;;;;;;;;;;4964614;28;20116;-75
2023/12/26 10:33:02;;;;;;;1.48;1.13;;;;;;;;;;4963843;28;20035;-76
2023/12/26 10:35:28;;;;;;;1.38;1.27;;;;;;;;;;4969420;28;20047;-76
2023/12/26 10:37:53;;;;;;;1.45;1.13;;;;;;;;;;4964178;28;20111;-76
2023/12/26 10:40:19;;;;;;;1.00;1.00;;;;;;;;;;4963907;28;20043;-76
2023/12/26 10:42:48;;;;;;;2.72;1.23;;;;;;;;;;4964290;28;20149;-76
2023/12/26 10:45:14;;;;;;;2.40;1.40;;;;;;;;;;4956400;28;20042;-76
2023/12/26 10:47:43;;;;;;;1.70;1.20;;;;;;;;;;4968395;28;20042;-77
2023/12/26 10:50:10;;;;;;;2.95;1.48;;;;;;;;;;4966193;28;20035;-75
2023/12/26 10:52:40;;;;;;;2.70;1.05;;;;;;;;;;4957482;28;20511;-76
2023/12/26 10:55:08;;;;;;;1.58;1.10;;;;;;;;;;4966569;28;20145;-76
2023/12/26 10:57:34;;;;;;;1.13;1.05;;;;;;;;;;4961439;28;20411;-76
2023/12/26 11:00:00;;;;;;;1.17;0.98;;;;;;;;;;4962333;28;20031;-76
2023/12/26 11:02:25;;;;;;;1.45;1.35;;;;;;;;;;4961089;28;20581;-77
2023/12/26 11:04:51;;;;;;;1.30;1.20;;;;;;;;;;4951290;28;20525;-77
2023/12/26 11:07:17;;;;;;;0.90;0.90;;;;;;;;;;4964424;28;20093;-77
2023/12/26 11:09:42;;;;;;;1.75;1.45;;;;;;;;;;4971199;28;20121;-77
2023/12/26 11:12:09;;;;;;;2.10;1.20;;;;;;;;;;4969816;28;20031;-76
2023/12/26 11:14:35;;;;;;;1.75;1.50;;;;;;;;;;4967700;28;20082;-77
2023/12/26 11:17:01;;;;;;;2.67;1.23;;;;;;;;;;4960990;28;20045;-76
2023/12/26 11:19:27;;;;;;;3.45;1.30;;;;;;;;;;4958902;28;20035;-76
2023/12/26 11:21:53;;;;;;;5.90;0.90;;;;;;;;;;4970647;28;20034;-76
2023/12/26 11:24:18;;;;;;;1.20;1.10;;;;;;;;;;4970552;28;20037;-76
2023/12/26 11:26:43;;;;;;;1.75;1.10;;;;;;;;;;4970791;28;20046;-76
2023/12/26 11:29:09;;;;;;;3.65;1.27;;;;;;;;;;4967020;28;20035;-75
2023/12/26 11:31:36;;;;;;;2.47;1.13;;;;;;;;;;4963125;28;20058;-77
2023/12/26 11:34:05;;;;;;;104.25;49.97;;;;;;;;;;4969948;28;20066;-77
2023/12/26 11:36:30;;;;;;;15.38;9.13;;;;;;;;;;4973201;28;20046;-75
2023/12/26 11:38:56;;;;;;;114.63;40.78;;;;;;;;;;4973047;28;20321;-77
2023/12/26 11:41:21;;;;;;;33.22;12.95;;;;;;;;;;4963822;28;20047;-75
2023/12/26 11:43:47;;;;;;;254.85;78.85;;;;;;;;;;4972462;28;20470;-75
2023/12/26 11:46:12;;;;;;;142.98;40.05;;;;;;;;;;4955485;28;20062;-75
2023/12/26 11:48:37;;;;;;;114.82;35.25;;;;;;;;;;4969290;28;20042;-75
2023/12/26 11:51:03;;;;;;;165.93;51.42;;;;;;;;;;4959217;28;20043;-77
2023/12/26 11:53:29;;;;;;;102.90;35.92;;;;;;;;;;4964637;28;20063;-76
2023/12/26 11:55:54;;;;;;;54.22;19.92;;;;;;;;;;4968225;28;20129;-77
2023/12/26 11:58:19;;;;;;;10.43;5.93;;;;;;;;;;4973027;28;20035;-75
2023/12/26 12:00:44;;;;;;;2.53;2.33;;;;;;;;;;4965710;28;20577;-75
2023/12/26 12:03:10;;;;;;;3.45;1.40;;;;;;;;;;4963511;28;20035;-76
2023/12/26 12:05:35;;;;;;;1.00;1.00;;;;;;;;;;4969908;28;20074;-75
2023/12/26 12:08:13;;;;;;;1.60;1.30;;;;;;;;;;4966140;28;20043;-75
2023/12/26 12:11:07;;;;;;;3.10;1.10;;;;;;;;;;4970207;28;20043;-77
2023/12/26 12:13:33;;;;;;;2.92;1.20;;;;;;;;;;4961148;28;20047;-77
2023/12/26 12:15:58;;;;;;;1.48;1.20;;;;;;;;;;4967297;28;20138;-76
2023/12/26 12:18:23;;;;;;;1.40;1.17;;;;;;;;;;4965266;28;20053;-75
2023/12/26 12:20:49;;;;;;;2.17;1.23;;;;;;;;;;4963212;28;20039;-75
2023/12/26 12:23:14;;;;;;;2.60;1.30;;;;;;;;;;4962907;28;20038;-75
2023/12/26 12:25:39;;;;;;;4.32;1.40;;;;;;;;;;4966011;28;20447;-75
2023/12/26 12:28:09;;;;;;;1.00;1.00;;;;;;;;;;4966756;28;20118;-75
2023/12/26 12:30:35;;;;;;;1.30;1.20;;;;;;;;;;4962265;28;20035;-75
2023/12/26 12:33:18;;;;;;;1.95;1.02;;;;;;;;;;4972107;28;20515;-77
2023/12/26 12:35:47;;;;;;;1.63;1.17;;;;;;;;;;4964055;28;20491;-76
2023/12/26 12:38:12;;;;;;;1.10;1.00;;;;;;;;;;4965684;28;20095;-75
2023/12/26 12:40:37;;;;;;;2.58;1.30;;;;;;;;;;4962671;28;20038;-75
2023/12/26 12:43:03;;;;;;;1.45;1.10;;;;;;;;;;4960263;28;20027;-76
2023/12/26 12:45:28;;;;;;;1.30;1.20;;;;;;;;;;4968336;28;20039;-76
2023/12/26 12:47:53;;;;;;;1.20;1.10;;;;;;;;;;4971111;28;20070;-77
2023/12/26 12:50:19;;;;;;;1.98;1.38;;;;;;;;;;4966954;28;20030;-75
2023/12/26 12:52:45;;;;;;;1.67;1.00;;;;;;;;;;4965940;28;20050;-75
2023/12/26 12:55:10;;;;;;;1.48;0.77;;;;;;;;;;4964414;28;20525;-77
2023/12/26 12:57:35;;;;;;;1.20;1.10;;;;;;;;;;4969860;28;20130;-75
2023/12/26 13:00:01;;;;;;;1.17;1.05;;;;;;;;;;4967375;28;20044;-77
2023/12/26 13:02:26;;;;;;;1.55;1.20;;;;;;;;;;4964280;28;20038;-77
2023/12/26 13:04:51;;;;;;;1.20;1.10;;;;;;;;;;4963965;28;20058;-75
2023/12/26 13:07:17;;;;;;;2.78;1.52;;;;;;;;;;4965262;28;20044;-77
2023/12/26 13:09:42;;;;;;;1.00;1.00;;;;;;;;;;4967161;28;20436;-75
2023/12/26 13:12:07;;;;;;;1.38;1.10;;;;;;;;;;4965103;28;20399;-75
2023/12/26 13:14:34;;;;;;;1.33;1.23;;;;;;;;;;4966584;28;20022;-75
2023/12/26 13:17:00;;;;;;;2.40;1.30;;;;;;;;;;4952506;28;20035;-75
2023/12/26 13:19:26;;;;;;;2.53;1.27;;;;;;;;;;4969741;28;20117;-75
2023/12/26 13:21:52;;;;;;;2.78;0.85;;;;;;;;;;4965317;28;20035;-75
2023/12/26 13:24:19;;;;;;;1.90;1.00;;;;;;;;;;4964411;28;20042;-75
2023/12/26 13:26:44;;;;;;;1.80;1.20;;;;;;;;;;4967846;28;20483;-75
2023/12/26 13:29:23;;;;;;;1.58;1.30;;;;;;;;;;4962971;28;20042;-77
2023/12/26 13:31:49;;;;;;;1.33;1.13;;;;;;;;;;4964100;28;20049;-75
2023/12/26 13:34:14;;;;;;;3.65;1.50;;;;;;;;;;4965006;28;20031;-75
2023/12/26 13:36:39;;;;;;;2.15;1.20;;;;;;;;;;4966102;28;20377;-76
2023/12/26 13:39:04;;;;;;;1.10;1.00;;;;;;;;;;4960849;28;20035;-75
2023/12/26 13:41:30;;;;;;;2.13;1.65;;;;;;;;;;4967981;28;20034;-75
2023/12/26 13:43:55;;;;;;;1.40;1.30;;;;;;;;;;4963472;28;20050;-75
2023/12/26 13:46:20;;;;;;;1.33;1.05;;;;;;;;;;4964999;28;20049;-76
2023/12/26 13:48:45;;;;;;;0.90;0.90;;;;;;;;;;4960008;28;20458;-77
2023/12/26 13:51:11;;;;;;;2.55;1.23;;;;;;;;;;4966235;28;20030;-77
2023/12/26 13:53:36;;;;;;;1.27;1.10;;;;;;;;;;4966399;28;20063;-78
2023/12/26 13:56:01;;;;;;;1.58;1.20;;;;;;;;;;4965007;28;20498;-76
2023/12/26 13:58:27;;;;;;;2.20;1.40;;;;;;;;;;4965117;28;20031;-77
2023/12/26 14:00:52;;;;;;;1.40;1.30;;;;;;;;;;4964125;28;20035;-76
2023/12/26 14:03:17;;;;;;;1.40;1.30;;;;;;;;;;4965533;28;20038;-76
2023/12/26 14:05:43;;;;;;;1.02;1.00;;;;;;;;;;4966822;28;20035;-76
2023/12/26 14:08:08;;;;;;;1.50;1.33;;;;;;;;;;4963583;28;20035;-76
2023/12/26 14:10:33;;;;;;;1.95;0.80;;;;;;;;;;4960195;28;20038;-76
2023/12/26 14:12:58;;;;;;;1.50;1.30;;;;;;;;;;4962484;28;20026;-76
2023/12/26 14:15:24;;;;;;;2.28;0.93;;;;;;;;;;4959755;28;20035;-76
2023/12/26 14:17:49;;;;;;;2.45;1.00;;;;;;;;;;4962049;28;20123;-76
2023/12/26 14:20:14;;;;;;;3.80;1.35;;;;;;;;;;4963500;28;20423;-76
2023/12/26 14:22:39;;;;;;;1.02;1.02;;;;;;;;;;4964788;28;20069;-76
2023/12/26 14:25:05;;;;;;;3.55;1.30;;;;;;;;;;4967537;28;20039;-76
2023/12/26 14:27:30;;;;;;;2.72;1.20;;;;;;;;;;4966930;28;20085;-76
2023/12/26 14:29:55;;;;;;;2.47;1.10;;;;;;;;;;4961559;28;20070;-76
2023/12/26 14:32:20;;;;;;;0.95;0.95;;;;;;;;;;4965623;28;20057;-76
2023/12/26 14:34:46;;;;;;;2.25;1.27;;;;;;;;;;4965777;28;20491;-76